sensor_id;sensor_type;location;lat;lon;timestamp;temperature;humidity
3055;DHT22;1537;52.018;8.542;2023-06-04T00:02:58;12.40;65.40
3055;DHT22;1537;52.018;8.542;2023-06-04T00:06:23;12.30;65.00
3055;DHT22;1537;52.018;8.542;2023-06-04T00:09:47;12.30;65.70
3055;DHT22;1537;52.018;8.542;2023-06-04T00:13:11;12.30;65.90
3055;DHT22;1537;52.018;8.542;2023-06-04T00:16:35;12.20;67.00
3055;DHT22;1537;52.018;8.542;2023-06-04T00:20:01;12.20;67.10
3055;DHT22;1537;52.018;8.542;2023-06-04T00:23:27;12.10;67.10
3055;DHT22;1537;52.018;8.542;2023-06-04T00:26:52;12.20;67.20
3055;DHT22;1537;52.018;8.542;2023-06-04T00:30:16;12.10;67.30
3055;DHT22;1537;52.018;8.542;2023-06-04T00:33:40;12.20;68.30
3055;DHT22;1537;52.018;8.542;2023-06-04T00:37:05;12.10;67.80
3055;DHT22;1537;52.018;8.542;2023-06-04T00:40:29;12.00;67.80
3055;DHT22;1537;52.018;8.542;2023-06-04T00:43:53;12.00;66.40
3055;DHT22;1537;52.018;8.542;2023-06-04T00:47:21;12.00;68.50
3055;DHT22;1537;52.018;8.542;2023-06-04T00:50:45;12.00;67.90
3055;DHT22;1537;52.018;8.542;2023-06-04T00:54:12;12.00;68.40
3055;DHT22;1537;52.018;8.542;2023-06-04T00:57:37;12.00;68.50
3055;DHT22;1537;52.018;8.542;2023-06-04T01:01:04;12.00;68.70
3055;DHT22;1537;52.018;8.542;2023-06-04T01:04:36;12.00;68.30
3055;DHT22;1537;52.018;8.542;2023-06-04T01:08:02;12.00;68.80
3055;DHT22;1537;52.018;8.542;2023-06-04T01:11:36;12.00;69.30
3055;DHT22;1537;52.018;8.542;2023-06-04T01:15:01;12.00;69.60
3055;DHT22;1537;52.018;8.542;2023-06-04T01:18:28;12.00;69.60
3055;DHT22;1537;52.018;8.542;2023-06-04T01:21:54;12.00;70.00
3055;DHT22;1537;52.018;8.542;2023-06-04T01:25:26;12.00;70.00
3055;DHT22;1537;52.018;8.542;2023-06-04T01:28:54;11.90;70.90
3055;DHT22;1537;52.018;8.542;2023-06-04T01:32:18;11.80;70.80
3055;DHT22;1537;52.018;8.542;2023-06-04T01:35:43;11.80;71.80
3055;DHT22;1537;52.018;8.542;2023-06-04T01:39:08;11.70;71.90
3055;DHT22;1537;52.018;8.542;2023-06-04T01:42:32;11.70;72.10
3055;DHT22;1537;52.018;8.542;2023-06-04T01:45:58;11.70;72.50
3055;DHT22;1537;52.018;8.542;2023-06-04T01:49:22;11.70;72.80
3055;DHT22;1537;52.018;8.542;2023-06-04T01:52:46;11.70;73.00
3055;DHT22;1537;52.018;8.542;2023-06-04T01:56:10;11.60;73.30
3055;DHT22;1537;52.018;8.542;2023-06-04T01:59:44;11.50;73.70
3055;DHT22;1537;52.018;8.542;2023-06-04T02:03:12;11.50;74.70
3055;DHT22;1537;52.018;8.542;2023-06-04T02:06:38;11.50;74.80
3055;DHT22;1537;52.018;8.542;2023-06-04T02:10:06;11.50;75.00
3055;DHT22;1537;52.018;8.542;2023-06-04T02:13:33;11.50;75.50
3055;DHT22;1537;52.018;8.542;2023-06-04T02:16:57;11.50;75.70
3055;DHT22;1537;52.018;8.542;2023-06-04T02:20:22;11.50;76.20
3055;DHT22;1537;52.018;8.542;2023-06-04T02:23:46;11.40;76.70
3055;DHT22;1537;52.018;8.542;2023-06-04T02:27:10;11.40;77.10
3055;DHT22;1537;52.018;8.542;2023-06-04T02:30:35;11.30;77.20
3055;DHT22;1537;52.018;8.542;2023-06-04T02:33:59;11.30;77.20
3055;DHT22;1537;52.018;8.542;2023-06-04T02:37:25;11.20;77.50
3055;DHT22;1537;52.018;8.542;2023-06-04T02:40:49;11.20;79.20
3055;DHT22;1537;52.018;8.542;2023-06-04T02:44:13;11.20;79.20
3055;DHT22;1537;52.018;8.542;2023-06-04T02:47:38;11.10;79.00
3055;DHT22;1537;52.018;8.542;2023-06-04T02:51:03;11.00;79.60
3055;DHT22;1537;52.018;8.542;2023-06-04T02:54:29;10.90;80.50
3055;DHT22;1537;52.018;8.542;2023-06-04T02:57:54;10.90;81.20
3055;DHT22;1537;52.018;8.542;2023-06-04T03:01:19;10.90;81.80
3055;DHT22;1537;52.018;8.542;2023-06-04T03:04:45;10.80;82.50
3055;DHT22;1537;52.018;8.542;2023-06-04T03:08:11;10.90;83.40
3055;DHT22;1537;52.018;8.542;2023-06-04T03:11:36;10.80;84.10
3055;DHT22;1537;52.018;8.542;2023-06-04T03:15:01;10.90;84.10
3055;DHT22;1537;52.018;8.542;2023-06-04T03:18:26;10.80;83.90
3055;DHT22;1537;52.018;8.542;2023-06-04T03:21:50;10.80;85.00
3055;DHT22;1537;52.018;8.542;2023-06-04T03:25:15;10.80;85.80
3055;DHT22;1537;52.018;8.542;2023-06-04T03:28:40;10.80;86.20
3055;DHT22;1537;52.018;8.542;2023-06-04T03:32:07;10.90;86.80
3055;DHT22;1537;52.018;8.542;2023-06-04T03:35:33;10.90;87.60
3055;DHT22;1537;52.018;8.542;2023-06-04T03:38:57;10.90;88.00
3055;DHT22;1537;52.018;8.542;2023-06-04T03:42:21;10.90;89.10
3055;DHT22;1537;52.018;8.542;2023-06-04T03:45:46;11.00;89.70
3055;DHT22;1537;52.018;8.542;2023-06-04T03:49:12;11.00;90.00
3055;DHT22;1537;52.018;8.542;2023-06-04T03:52:42;11.00;90.00
3055;DHT22;1537;52.018;8.542;2023-06-04T03:56:06;11.00;90.30
3055;DHT22;1537;52.018;8.542;2023-06-04T03:59:30;10.90;91.20
3055;DHT22;1537;52.018;8.542;2023-06-04T04:02:56;11.00;91.20
3055;DHT22;1537;52.018;8.542;2023-06-04T04:06:25;11.10;91.70
3055;DHT22;1537;52.018;8.542;2023-06-04T04:09:52;11.10;91.90
3055;DHT22;1537;52.018;8.542;2023-06-04T04:13:18;11.10;91.80
3055;DHT22;1537;52.018;8.542;2023-06-04T04:16:42;11.20;91.80
3055;DHT22;1537;52.018;8.542;2023-06-04T04:20:08;11.30;92.40
3055;DHT22;1537;52.018;8.542;2023-06-04T04:23:37;11.40;92.60
3055;DHT22;1537;52.018;8.542;2023-06-04T04:27:01;11.40;92.30
3055;DHT22;1537;52.018;8.542;2023-06-04T04:30:28;11.50;91.90
3055;DHT22;1537;52.018;8.542;2023-06-04T04:33:51;11.40;92.00
3055;DHT22;1537;52.018;8.542;2023-06-04T04:37:18;11.50;92.30
3055;DHT22;1537;52.018;8.542;2023-06-04T04:40:44;11.60;92.30
3055;DHT22;1537;52.018;8.542;2023-06-04T04:44:11;11.60;92.30
3055;DHT22;1537;52.018;8.542;2023-06-04T04:47:35;11.60;92.60
3055;DHT22;1537;52.018;8.542;2023-06-04T04:50:59;11.70;92.20
3055;DHT22;1537;52.018;8.542;2023-06-04T04:54:25;11.80;92.10
3055;DHT22;1537;52.018;8.542;2023-06-04T04:57:50;11.90;91.90
3055;DHT22;1537;52.018;8.542;2023-06-04T05:01:15;12.30;90.80
3055;DHT22;1537;52.018;8.542;2023-06-04T05:04:40;12.60;90.30
3055;DHT22;1537;52.018;8.542;2023-06-04T05:08:05;13.10;90.20
3055;DHT22;1537;52.018;8.542;2023-06-04T05:11:35;13.70;88.70
3055;DHT22;1537;52.018;8.542;2023-06-04T05:15:00;14.70;85.60
3055;DHT22;1537;52.018;8.542;2023-06-04T05:18:25;15.70;82.50
3055;DHT22;1537;52.018;8.542;2023-06-04T05:21:58;16.50;79.10
3055;DHT22;1537;52.018;8.542;2023-06-04T05:25:25;17.40;75.40
3055;DHT22;1537;52.018;8.542;2023-06-04T05:28:53;18.10;73.30
3055;DHT22;1537;52.018;8.542;2023-06-04T05:32:22;19.00;69.80
3055;DHT22;1537;52.018;8.542;2023-06-04T05:35:47;19.90;67.10
3055;DHT22;1537;52.018;8.542;2023-06-04T05:39:12;20.10;65.40
3055;DHT22;1537;52.018;8.542;2023-06-04T05:42:58;20.10;62.00
3055;DHT22;1537;52.018;8.542;2023-06-04T05:46:23;20.20;61.50
3055;DHT22;1537;52.018;8.542;2023-06-04T05:49:49;20.00;60.60
3055;DHT22;1537;52.018;8.542;2023-06-04T05:53:13;19.10;60.60
3055;DHT22;1537;52.018;8.542;2023-06-04T05:56:38;19.10;62.70
3055;DHT22;1537;52.018;8.542;2023-06-04T06:00:03;20.00;61.90
3055;DHT22;1537;52.018;8.542;2023-06-04T06:03:36;20.80;60.60
3055;DHT22;1537;52.018;8.542;2023-06-04T06:07:00;21.10;58.60
3055;DHT22;1537;52.018;8.542;2023-06-04T06:10:28;21.80;57.20
3055;DHT22;1537;52.018;8.542;2023-06-04T06:13:52;22.40;55.80
3055;DHT22;1537;52.018;8.542;2023-06-04T06:17:17;22.40;55.10
3055;DHT22;1537;52.018;8.542;2023-06-04T06:20:42;22.90;55.20
3055;DHT22;1537;52.018;8.542;2023-06-04T06:24:06;22.80;54.60
3055;DHT22;1537;52.018;8.542;2023-06-04T06:27:31;23.10;53.10
3055;DHT22;1537;52.018;8.542;2023-06-04T06:30:55;23.20;53.10
3055;DHT22;1537;52.018;8.542;2023-06-04T06:34:19;23.60;51.60
3055;DHT22;1537;52.018;8.542;2023-06-04T06:37:44;23.60;52.00
3055;DHT22;1537;52.018;8.542;2023-06-04T06:41:09;24.20;49.40
3055;DHT22;1537;52.018;8.542;2023-06-04T06:44:34;24.50;48.50
3055;DHT22;1537;52.018;8.542;2023-06-04T06:47:58;25.10;47.70
3055;DHT22;1537;52.018;8.542;2023-06-04T06:51:22;25.10;47.00
3055;DHT22;1537;52.018;8.542;2023-06-04T06:54:47;25.50;46.30
3055;DHT22;1537;52.018;8.542;2023-06-04T06:58:12;26.00;45.20
3055;DHT22;1537;52.018;8.542;2023-06-04T07:01:39;25.20;45.40
3055;DHT22;1537;52.018;8.542;2023-06-04T07:05:04;26.10;45.20
3055;DHT22;1537;52.018;8.542;2023-06-04T07:08:28;26.40;44.10
3055;DHT22;1537;52.018;8.542;2023-06-04T07:11:59;26.60;44.40
3055;DHT22;1537;52.018;8.542;2023-06-04T07:15:28;25.60;44.40
3055;DHT22;1537;52.018;8.542;2023-06-04T07:18:52;26.50;44.40
3055;DHT22;1537;52.018;8.542;2023-06-04T07:22:16;26.20;43.80
3055;DHT22;1537;52.018;8.542;2023-06-04T07:25:40;26.40;43.60
3055;DHT22;1537;52.018;8.542;2023-06-04T07:29:05;27.10;43.20
3055;DHT22;1537;52.018;8.542;2023-06-04T07:32:28;28.00;42.20
3055;DHT22;1537;52.018;8.542;2023-06-04T07:35:52;27.30;42.50
3055;DHT22;1537;52.018;8.542;2023-06-04T07:39:16;26.50;43.40
3055;DHT22;1537;52.018;8.542;2023-06-04T07:42:40;27.30;42.90
3055;DHT22;1537;52.018;8.542;2023-06-04T07:46:06;26.90;41.90
3055;DHT22;1537;52.018;8.542;2023-06-04T07:49:29;27.20;42.20
3055;DHT22;1537;52.018;8.542;2023-06-04T07:52:54;27.40;41.90
3055;DHT22;1537;52.018;8.542;2023-06-04T07:56:18;27.70;42.10
3055;DHT22;1537;52.018;8.542;2023-06-04T07:59:41;28.60;41.00
3055;DHT22;1537;52.018;8.542;2023-06-04T08:03:06;28.20;40.60
3055;DHT22;1537;52.018;8.542;2023-06-04T08:06:30;28.70;39.90
3055;DHT22;1537;52.018;8.542;2023-06-04T08:09:55;28.10;39.70
3055;DHT22;1537;52.018;8.542;2023-06-04T08:13:19;27.70;40.40
3055;DHT22;1537;52.018;8.542;2023-06-04T08:16:43;28.10;40.30
3055;DHT22;1537;52.018;8.542;2023-06-04T08:20:27;28.50;39.80
3055;DHT22;1537;52.018;8.542;2023-06-04T08:24:09;28.70;40.10
3055;DHT22;1537;52.018;8.542;2023-06-04T08:27:52;28.80;40.00
3055;DHT22;1537;52.018;8.542;2023-06-04T08:31:36;28.40;39.50
3055;DHT22;1537;52.018;8.542;2023-06-04T08:35:21;28.50;39.40
3055;DHT22;1537;52.018;8.542;2023-06-04T08:38:46;27.50;39.60
3055;DHT22;1537;52.018;8.542;2023-06-04T08:42:21;27.40;40.70
3055;DHT22;1537;52.018;8.542;2023-06-04T08:45:49;28.90;39.80
3055;DHT22;1537;52.018;8.542;2023-06-04T08:49:14;30.10;39.00
3055;DHT22;1537;52.018;8.542;2023-06-04T08:52:39;30.90;37.10
3055;DHT22;1537;52.018;8.542;2023-06-04T08:56:04;30.00;36.00
3055;DHT22;1537;52.018;8.542;2023-06-04T08:59:28;28.50;37.20
3055;DHT22;1537;52.018;8.542;2023-06-04T09:02:52;29.00;38.00
3055;DHT22;1537;52.018;8.542;2023-06-04T09:06:17;29.40;36.40
3055;DHT22;1537;52.018;8.542;2023-06-04T09:09:44;30.40;36.50
3055;DHT22;1537;52.018;8.542;2023-06-04T09:13:31;30.70;34.90
3055;DHT22;1537;52.018;8.542;2023-06-04T09:16:56;31.60;33.90
3055;DHT22;1537;52.018;8.542;2023-06-04T09:20:22;32.60;34.10
3055;DHT22;1537;52.018;8.542;2023-06-04T09:23:46;31.10;33.00
3055;DHT22;1537;52.018;8.542;2023-06-04T09:27:11;30.40;32.20
3055;DHT22;1537;52.018;8.542;2023-06-04T09:30:36;30.40;33.30
3055;DHT22;1537;52.018;8.542;2023-06-04T09:34:00;30.40;32.40
3055;DHT22;1537;52.018;8.542;2023-06-04T09:37:24;29.20;33.10
3055;DHT22;1537;52.018;8.542;2023-06-04T09:40:49;28.50;33.70
3055;DHT22;1537;52.018;8.542;2023-06-04T09:44:13;28.70;33.90
3055;DHT22;1537;52.018;8.542;2023-06-04T09:47:44;29.40;33.40
3055;DHT22;1537;52.018;8.542;2023-06-04T09:51:09;29.30;34.00
3055;DHT22;1537;52.018;8.542;2023-06-04T09:54:35;28.30;34.70
3055;DHT22;1537;52.018;8.542;2023-06-04T09:58:00;28.00;33.70
3055;DHT22;1537;52.018;8.542;2023-06-04T10:01:26;28.80;34.80
3055;DHT22;1537;52.018;8.542;2023-06-04T10:04:55;29.50;34.00
3055;DHT22;1537;52.018;8.542;2023-06-04T10:08:22;28.70;34.60
3055;DHT22;1537;52.018;8.542;2023-06-04T10:11:52;28.90;34.60
3055;DHT22;1537;52.018;8.542;2023-06-04T10:15:20;27.90;35.30
3055;DHT22;1537;52.018;8.542;2023-06-04T10:18:44;27.10;36.80
3055;DHT22;1537;52.018;8.542;2023-06-04T10:22:10;27.70;36.30
3055;DHT22;1537;52.018;8.542;2023-06-04T10:25:35;29.00;34.40
3055;DHT22;1537;52.018;8.542;2023-06-04T10:29:00;29.40;33.20
3055;DHT22;1537;52.018;8.542;2023-06-04T10:32:27;30.00;33.60
3055;DHT22;1537;52.018;8.542;2023-06-04T10:35:54;30.50;33.10
3055;DHT22;1537;52.018;8.542;2023-06-04T10:39:26;30.60;32.00
3055;DHT22;1537;52.018;8.542;2023-06-04T10:42:50;29.40;33.60
3055;DHT22;1537;52.018;8.542;2023-06-04T10:46:17;28.80;34.50
3055;DHT22;1537;52.018;8.542;2023-06-04T10:49:40;28.50;34.30
3055;DHT22;1537;52.018;8.542;2023-06-04T10:53:04;28.60;33.80
3055;DHT22;1537;52.018;8.542;2023-06-04T10:56:30;28.80;33.80
3055;DHT22;1537;52.018;8.542;2023-06-04T10:59:56;27.60;34.80
3055;DHT22;1537;52.018;8.542;2023-06-04T11:03:20;27.20;35.00
3055;DHT22;1537;52.018;8.542;2023-06-04T11:06:45;26.60;36.30
3055;DHT22;1537;52.018;8.542;2023-06-04T11:10:10;27.00;35.80
3055;DHT22;1537;52.018;8.542;2023-06-04T11:13:35;26.30;36.60
3055;DHT22;1537;52.018;8.542;2023-06-04T11:17:08;25.50;36.40
3055;DHT22;1537;52.018;8.542;2023-06-04T11:20:32;26.10;36.10
3055;DHT22;1537;52.018;8.542;2023-06-04T11:23:58;25.20;37.30
3055;DHT22;1537;52.018;8.542;2023-06-04T11:27:22;24.50;38.10
3055;DHT22;1537;52.018;8.542;2023-06-04T11:31:00;23.90;38.40
3055;DHT22;1537;52.018;8.542;2023-06-04T11:34:27;22.80;40.10
3055;DHT22;1537;52.018;8.542;2023-06-04T11:37:55;22.90;40.40
3055;DHT22;1537;52.018;8.542;2023-06-04T11:41:19;22.70;39.50
3055;DHT22;1537;52.018;8.542;2023-06-04T11:44:43;23.00;40.30
3055;DHT22;1537;52.018;8.542;2023-06-04T11:48:12;22.90;40.30
3055;DHT22;1537;52.018;8.542;2023-06-04T11:51:36;22.80;39.80
3055;DHT22;1537;52.018;8.542;2023-06-04T11:55:00;23.00;39.80
3055;DHT22;1537;52.018;8.542;2023-06-04T11:58:24;23.00;40.40
3055;DHT22;1537;52.018;8.542;2023-06-04T12:01:48;23.00;39.90
3055;DHT22;1537;52.018;8.542;2023-06-04T12:05:15;22.90;40.10
3055;DHT22;1537;52.018;8.542;2023-06-04T12:08:48;23.00;40.50
3055;DHT22;1537;52.018;8.542;2023-06-04T12:12:12;22.90;39.50
3055;DHT22;1537;52.018;8.542;2023-06-04T12:15:35;22.80;40.00
3055;DHT22;1537;52.018;8.542;2023-06-04T12:19:07;22.70;39.70
3055;DHT22;1537;52.018;8.542;2023-06-04T12:22:32;22.50;39.20
3055;DHT22;1537;52.018;8.542;2023-06-04T12:25:56;22.60;40.00
3055;DHT22;1537;52.018;8.542;2023-06-04T12:29:22;22.60;39.70
3055;DHT22;1537;52.018;8.542;2023-06-04T12:32:46;22.90;40.20
3055;DHT22;1537;52.018;8.542;2023-06-04T12:36:10;22.80;40.50
3055;DHT22;1537;52.018;8.542;2023-06-04T12:39:35;22.80;40.00
3055;DHT22;1537;52.018;8.542;2023-06-04T12:42:58;22.50;40.40
3055;DHT22;1537;52.018;8.542;2023-06-04T12:46:23;22.50;41.40
3055;DHT22;1537;52.018;8.542;2023-06-04T12:49:47;22.60;41.00
3055;DHT22;1537;52.018;8.542;2023-06-04T12:53:12;22.70;40.70
3055;DHT22;1537;52.018;8.542;2023-06-04T12:56:37;22.70;40.50
3055;DHT22;1537;52.018;8.542;2023-06-04T13:00:00;22.80;41.00
3055;DHT22;1537;52.018;8.542;2023-06-04T13:03:26;22.70;40.40
3055;DHT22;1537;52.018;8.542;2023-06-04T13:06:50;22.60;40.10
3055;DHT22;1537;52.018;8.542;2023-06-04T13:10:14;22.60;40.20
3055;DHT22;1537;52.018;8.542;2023-06-04T13:13:39;22.50;39.40
3055;DHT22;1537;52.018;8.542;2023-06-04T13:17:03;22.60;40.50
3055;DHT22;1537;52.018;8.542;2023-06-04T13:20:43;22.70;40.10
3055;DHT22;1537;52.018;8.542;2023-06-04T13:24:09;22.70;40.40
3055;DHT22;1537;52.018;8.542;2023-06-04T13:27:33;22.60;39.40
3055;DHT22;1537;52.018;8.542;2023-06-04T13:30:58;22.50;39.80
3055;DHT22;1537;52.018;8.542;2023-06-04T13:34:22;22.80;40.50
3055;DHT22;1537;52.018;8.542;2023-06-04T13:37:49;22.90;39.90
3055;DHT22;1537;52.018;8.542;2023-06-04T13:41:13;22.90;39.40
3055;DHT22;1537;52.018;8.542;2023-06-04T13:44:37;23.10;39.60
3055;DHT22;1537;52.018;8.542;2023-06-04T13:48:02;23.10;39.90
3055;DHT22;1537;52.018;8.542;2023-06-04T13:51:29;23.00;39.60
3055;DHT22;1537;52.018;8.542;2023-06-04T13:54:53;23.30;39.30
3055;DHT22;1537;52.018;8.542;2023-06-04T13:58:17;23.20;38.30
3055;DHT22;1537;52.018;8.542;2023-06-04T14:01:41;23.20;38.30
3055;DHT22;1537;52.018;8.542;2023-06-04T14:05:07;23.10;38.60
3055;DHT22;1537;52.018;8.542;2023-06-04T14:08:30;23.20;38.60
3055;DHT22;1537;52.018;8.542;2023-06-04T14:11:55;23.20;38.70
3055;DHT22;1537;52.018;8.542;2023-06-04T14:15:19;23.10;38.70
3055;DHT22;1537;52.018;8.542;2023-06-04T14:18:42;23.10;39.30
3055;DHT22;1537;52.018;8.542;2023-06-04T14:22:08;23.00;38.40
3055;DHT22;1537;52.018;8.542;2023-06-04T14:25:31;22.90;39.00
3055;DHT22;1537;52.018;8.542;2023-06-04T14:28:59;22.80;39.10
3055;DHT22;1537;52.018;8.542;2023-06-04T14:32:23;22.70;37.90
3055;DHT22;1537;52.018;8.542;2023-06-04T14:35:46;22.90;38.50
3055;DHT22;1537;52.018;8.542;2023-06-04T14:39:12;23.00;38.80
3055;DHT22;1537;52.018;8.542;2023-06-04T14:42:35;23.10;38.30
3055;DHT22;1537;52.018;8.542;2023-06-04T14:45:59;23.10;37.50
3055;DHT22;1537;52.018;8.542;2023-06-04T14:49:23;23.00;37.70
3055;DHT22;1537;52.018;8.542;2023-06-04T14:52:46;23.00;37.70
3055;DHT22;1537;52.018;8.542;2023-06-04T14:56:11;23.00;36.80
3055;DHT22;1537;52.018;8.542;2023-06-04T14:59:36;23.10;36.80
3055;DHT22;1537;52.018;8.542;2023-06-04T15:03:01;23.20;37.70
3055;DHT22;1537;52.018;8.542;2023-06-04T15:06:25;23.00;38.40
3055;DHT22;1537;52.018;8.542;2023-06-04T15:09:49;23.00;38.60
3055;DHT22;1537;52.018;8.542;2023-06-04T15:13:14;22.90;38.80
3055;DHT22;1537;52.018;8.542;2023-06-04T15:16:38;23.00;39.20
3055;DHT22;1537;52.018;8.542;2023-06-04T15:20:02;23.00;38.80
3055;DHT22;1537;52.018;8.542;2023-06-04T15:23:26;23.10;39.00
3055;DHT22;1537;52.018;8.542;2023-06-04T15:26:50;23.10;38.80
3055;DHT22;1537;52.018;8.542;2023-06-04T15:30:15;23.20;38.70
3055;DHT22;1537;52.018;8.542;2023-06-04T15:33:39;23.00;39.10
3055;DHT22;1537;52.018;8.542;2023-06-04T15:37:03;23.00;38.70
3055;DHT22;1537;52.018;8.542;2023-06-04T15:40:27;22.80;38.20
3055;DHT22;1537;52.018;8.542;2023-06-04T15:43:51;22.70;37.90
3055;DHT22;1537;52.018;8.542;2023-06-04T15:47:17;22.80;38.20
3055;DHT22;1537;52.018;8.542;2023-06-04T15:50:42;22.90;38.30
3055;DHT22;1537;52.018;8.542;2023-06-04T15:54:08;22.90;37.90
3055;DHT22;1537;52.018;8.542;2023-06-04T15:57:33;22.90;37.80
3055;DHT22;1537;52.018;8.542;2023-06-04T16:00:56;23.00;38.40
3055;DHT22;1537;52.018;8.542;2023-06-04T16:04:23;23.00;37.20
3055;DHT22;1537;52.018;8.542;2023-06-04T16:07:47;22.80;36.90
3055;DHT22;1537;52.018;8.542;2023-06-04T16:11:11;22.70;37.50
3055;DHT22;1537;52.018;8.542;2023-06-04T16:14:35;22.80;37.30
3055;DHT22;1537;52.018;8.542;2023-06-04T16:17:58;22.70;38.20
3055;DHT22;1537;52.018;8.542;2023-06-04T16:21:24;22.70;37.40
3055;DHT22;1537;52.018;8.542;2023-06-04T16:24:48;22.70;37.50
3055;DHT22;1537;52.018;8.542;2023-06-04T16:28:11;22.60;37.60
3055;DHT22;1537;52.018;8.542;2023-06-04T16:31:35;22.80;38.50
3055;DHT22;1537;52.018;8.542;2023-06-04T16:34:59;22.60;38.40
3055;DHT22;1537;52.018;8.542;2023-06-04T16:38:26;22.60;38.20
3055;DHT22;1537;52.018;8.542;2023-06-04T16:41:50;22.50;38.60
3055;DHT22;1537;52.018;8.542;2023-06-04T16:45:14;22.50;38.90
3055;DHT22;1537;52.018;8.542;2023-06-04T16:48:38;22.40;39.10
3055;DHT22;1537;52.018;8.542;2023-06-04T16:52:01;22.40;39.30
3055;DHT22;1537;52.018;8.542;2023-06-04T16:55:31;22.40;39.10
3055;DHT22;1537;52.018;8.542;2023-06-04T16:59:07;22.50;39.30
3055;DHT22;1537;52.018;8.542;2023-06-04T17:02:31;22.60;39.20
3055;DHT22;1537;52.018;8.542;2023-06-04T17:05:55;22.50;39.20
3055;DHT22;1537;52.018;8.542;2023-06-04T17:09:18;22.50;39.80
3055;DHT22;1537;52.018;8.542;2023-06-04T17:12:43;22.30;39.50
3055;DHT22;1537;52.018;8.542;2023-06-04T17:16:09;22.20;39.80
3055;DHT22;1537;52.018;8.542;2023-06-04T17:19:33;22.30;40.10
3055;DHT22;1537;52.018;8.542;2023-06-04T17:23:00;22.40;40.30
3055;DHT22;1537;52.018;8.542;2023-06-04T17:26:23;22.30;40.90
3055;DHT22;1537;52.018;8.542;2023-06-04T17:29:49;22.30;40.80
3055;DHT22;1537;52.018;8.542;2023-06-04T17:33:13;22.20;41.00
3055;DHT22;1537;52.018;8.542;2023-06-04T17:36:37;22.20;41.20
3055;DHT22;1537;52.018;8.542;2023-06-04T17:40:03;22.20;41.00
3055;DHT22;1537;52.018;8.542;2023-06-04T17:43:27;22.10;40.90
3055;DHT22;1537;52.018;8.542;2023-06-04T17:46:52;22.10;41.70
3055;DHT22;1537;52.018;8.542;2023-06-04T17:50:16;22.20;42.20
3055;DHT22;1537;52.018;8.542;2023-06-04T17:53:40;22.10;42.10
3055;DHT22;1537;52.018;8.542;2023-06-04T17:57:04;22.10;42.20
3055;DHT22;1537;52.018;8.542;2023-06-04T18:00:28;22.00;42.60
3055;DHT22;1537;52.018;8.542;2023-06-04T18:03:53;21.90;42.70
3055;DHT22;1537;52.018;8.542;2023-06-04T18:07:18;21.90;42.90
3055;DHT22;1537;52.018;8.542;2023-06-04T18:10:42;21.80;42.70
3055;DHT22;1537;52.018;8.542;2023-06-04T18:14:05;21.80;42.70
3055;DHT22;1537;52.018;8.542;2023-06-04T18:17:29;21.80;43.20
3055;DHT22;1537;52.018;8.542;2023-06-04T18:20:55;21.70;43.40
3055;DHT22;1537;52.018;8.542;2023-06-04T18:24:19;21.70;44.10
3055;DHT22;1537;52.018;8.542;2023-06-04T18:27:43;21.70;44.10
3055;DHT22;1537;52.018;8.542;2023-06-04T18:31:07;21.70;44.50
3055;DHT22;1537;52.018;8.542;2023-06-04T18:34:31;21.60;44.50
3055;DHT22;1537;52.018;8.542;2023-06-04T18:37:56;21.60;44.70
3055;DHT22;1537;52.018;8.542;2023-06-04T18:41:20;21.50;44.80
3055;DHT22;1537;52.018;8.542;2023-06-04T18:44:44;21.40;45.20
3055;DHT22;1537;52.018;8.542;2023-06-04T18:48:08;21.20;45.50
3055;DHT22;1537;52.018;8.542;2023-06-04T18:51:32;21.10;45.90
3055;DHT22;1537;52.018;8.542;2023-06-04T18:54:57;21.10;46.00
3055;DHT22;1537;52.018;8.542;2023-06-04T18:58:20;21.00;46.40
3055;DHT22;1537;52.018;8.542;2023-06-04T19:01:44;21.00;46.60
3055;DHT22;1537;52.018;8.542;2023-06-04T19:05:10;20.90;46.70
3055;DHT22;1537;52.018;8.542;2023-06-04T19:08:36;20.70;47.10
3055;DHT22;1537;52.018;8.542;2023-06-04T19:12:01;20.60;47.60
3055;DHT22;1537;52.018;8.542;2023-06-04T19:15:25;20.50;48.00
3055;DHT22;1537;52.018;8.542;2023-06-04T19:18:49;20.40;48.30
3055;DHT22;1537;52.018;8.542;2023-06-04T19:22:14;20.40;48.60
3055;DHT22;1537;52.018;8.542;2023-06-04T19:25:39;20.20;48.90
3055;DHT22;1537;52.018;8.542;2023-06-04T19:29:04;20.10;49.30
3055;DHT22;1537;52.018;8.542;2023-06-04T19:32:32;20.00;49.70
3055;DHT22;1537;52.018;8.542;2023-06-04T19:35:56;19.90;50.10
3055;DHT22;1537;52.018;8.542;2023-06-04T19:39:20;19.70;51.30
3055;DHT22;1537;52.018;8.542;2023-06-04T19:42:44;19.40;55.20
3055;DHT22;1537;52.018;8.542;2023-06-04T19:46:09;19.20;57.70
3055;DHT22;1537;52.018;8.542;2023-06-04T19:49:33;18.90;59.90
3055;DHT22;1537;52.018;8.542;2023-06-04T19:52:56;18.60;61.80
3055;DHT22;1537;52.018;8.542;2023-06-04T19:56:20;18.50;63.60
3055;DHT22;1537;52.018;8.542;2023-06-04T19:59:44;18.40;65.30
3055;DHT22;1537;52.018;8.542;2023-06-04T20:03:09;18.20;66.90
3055;DHT22;1537;52.018;8.542;2023-06-04T20:06:33;18.20;68.40
3055;DHT22;1537;52.018;8.542;2023-06-04T20:09:57;18.00;70.10
3055;DHT22;1537;52.018;8.542;2023-06-04T20:13:20;18.00;71.50
3055;DHT22;1537;52.018;8.542;2023-06-04T20:16:44;17.90;73.20
3055;DHT22;1537;52.018;8.542;2023-06-04T20:20:10;17.80;74.90
3055;DHT22;1537;52.018;8.542;2023-06-04T20:23:33;17.60;76.90
3055;DHT22;1537;52.018;8.542;2023-06-04T20:26:57;17.50;78.90
3055;DHT22;1537;52.018;8.542;2023-06-04T20:30:21;17.40;80.60
3055;DHT22;1537;52.018;8.542;2023-06-04T20:33:44;17.30;82.30
3055;DHT22;1537;52.018;8.542;2023-06-04T20:37:13;17.30;83.50
3055;DHT22;1537;52.018;8.542;2023-06-04T20:40:37;17.20;84.60
3055;DHT22;1537;52.018;8.542;2023-06-04T20:44:01;17.20;86.10
3055;DHT22;1537;52.018;8.542;2023-06-04T20:47:25;17.00;87.10
3055;DHT22;1537;52.018;8.542;2023-06-04T20:50:49;16.90;88.50
3055;DHT22;1537;52.018;8.542;2023-06-04T20:54:14;16.90;89.60
3055;DHT22;1537;52.018;8.542;2023-06-04T20:57:38;16.80;90.30
3055;DHT22;1537;52.018;8.542;2023-06-04T21:01:02;16.80;90.70
3055;DHT22;1537;52.018;8.542;2023-06-04T21:04:28;16.70;90.90
3055;DHT22;1537;52.018;8.542;2023-06-04T21:07:52;16.60;91.30
3055;DHT22;1537;52.018;8.542;2023-06-04T21:11:24;16.50;91.70
3055;DHT22;1537;52.018;8.542;2023-06-04T21:14:49;16.40;92.30
3055;DHT22;1537;52.018;8.542;2023-06-04T21:18:13;16.30;92.70
3055;DHT22;1537;52.018;8.542;2023-06-04T21:21:37;16.20;93.00
3055;DHT22;1537;52.018;8.542;2023-06-04T21:25:01;16.20;93.70
3055;DHT22;1537;52.018;8.542;2023-06-04T21:28:26;16.10;93.60
3055;DHT22;1537;52.018;8.542;2023-06-04T21:31:50;16.00;93.90
3055;DHT22;1537;52.018;8.542;2023-06-04T21:35:14;15.90;94.30
3055;DHT22;1537;52.018;8.542;2023-06-04T21:38:37;15.90;94.60
3055;DHT22;1537;52.018;8.542;2023-06-04T21:42:01;15.80;94.90
3055;DHT22;1537;52.018;8.542;2023-06-04T21:45:26;15.90;95.10
3055;DHT22;1537;52.018;8.542;2023-06-04T21:48:50;15.80;95.50
3055;DHT22;1537;52.018;8.542;2023-06-04T21:52:14;15.80;95.80
3055;DHT22;1537;52.018;8.542;2023-06-04T21:55:49;15.80;96.20
3055;DHT22;1537;52.018;8.542;2023-06-04T21:59:12;15.60;96.60
3055;DHT22;1537;52.018;8.542;2023-06-04T22:02:38;15.60;96.90
3055;DHT22;1537;52.018;8.542;2023-06-04T22:06:02;15.40;97.10
3055;DHT22;1537;52.018;8.542;2023-06-04T22:09:26;15.30;97.60
3055;DHT22;1537;52.018;8.542;2023-06-04T22:12:50;15.30;97.90
3055;DHT22;1537;52.018;8.542;2023-06-04T22:16:13;15.20;98.30
3055;DHT22;1537;52.018;8.542;2023-06-04T22:19:38;15.20;98.70
3055;DHT22;1537;52.018;8.542;2023-06-04T22:23:03;15.20;99.00